METAR Data
IDs: Format: Raw Decoded Include TAF

Data at: 0734 UTC 01 Aug 2021

EBBE 010725Z AUTO 24009KT 9999 OVC006/// 15/13 Q1010 YLO